createdAt,value
2022-08-25T00:00:22.619Z,94.14
2022-08-25T00:03:06.003Z,93.80
2022-08-25T00:05:35.812Z,93.56
2022-08-25T00:08:06.746Z,93.72
2022-08-25T00:10:37.492Z,93.61
2022-08-25T00:13:07.319Z,93.20
2022-08-25T00:15:36.872Z,93.14
2022-08-25T00:18:05.829Z,93.53
2022-08-25T00:20:49.057Z,93.89
2022-08-25T00:23:19.107Z,94.11
2022-08-25T00:25:47.779Z,94.29
2022-08-25T00:28:17.005Z,94.96
2022-08-25T00:30:45.461Z,94.79
2022-08-25T00:33:14.139Z,94.99
2022-08-25T00:35:43.396Z,96.23
2022-08-25T00:38:12.856Z,97.26
2022-08-25T00:40:43.029Z,97.84
2022-08-25T00:43:11.926Z,98.25
2022-08-25T00:45:40.715Z,98.18
2022-08-25T00:48:09.235Z,97.48
2022-08-25T00:50:37.547Z,96.80
2022-08-25T00:53:07.688Z,96.93
2022-08-25T00:55:40.542Z,97.18
2022-08-25T00:58:14.751Z,97.37
2022-08-25T01:00:52.452Z,97.11
2022-08-25T01:03:25.295Z,96.81
2022-08-25T01:06:04.678Z,97.04
2022-08-25T01:08:34.051Z,96.98
2022-08-25T01:11:07.225Z,97.11
2022-08-25T01:13:45.355Z,97.35
2022-08-25T01:16:16.118Z,97.25
2022-08-25T01:18:49.446Z,97.62
2022-08-25T01:21:20.909Z,98.20
2022-08-25T01:23:50.173Z,98.64
2022-08-25T01:26:31.140Z,98.90
2022-08-25T01:29:21.465Z,98.79
2022-08-25T01:31:52.661Z,98.33
2022-08-25T01:34:21.641Z,97.97
2022-08-25T01:36:50.199Z,97.68
2022-08-25T01:39:18.551Z,97.53
2022-08-25T01:42:03.965Z,97.49
2022-08-25T01:44:36.116Z,97.14
2022-08-25T01:47:06.388Z,97.15
2022-08-25T01:49:35.830Z,97.25
2022-08-25T01:52:13.027Z,97.30
2022-08-25T01:54:41.515Z,97.43
2022-08-25T01:57:09.895Z,97.33
2022-08-25T01:59:38.219Z,97.20
2022-08-25T02:02:06.599Z,97.25
2022-08-25T02:04:34.984Z,97.19
2022-08-25T02:07:08.208Z,97.51
2022-08-25T02:09:38.620Z,97.53
2022-08-25T02:12:07.139Z,97.26
2022-08-25T02:14:36.831Z,97.33
2022-08-25T02:17:06.976Z,97.30
2022-08-25T02:19:35.135Z,97.53
2022-08-25T02:22:04.476Z,97.73
2022-08-25T02:24:33.403Z,97.76
2022-08-25T02:27:02.030Z,97.43
2022-08-25T02:29:30.923Z,97.51
2022-08-25T02:31:59.234Z,97.19
2022-08-25T02:34:27.686Z,96.88
2022-08-25T02:36:55.807Z,97.11
2022-08-25T02:39:24.018Z,97.14
2022-08-25T02:41:52.591Z,97.04
2022-08-25T02:44:22.080Z,96.92
2022-08-25T02:46:50.172Z,96.94
2022-08-25T02:49:18.994Z,97.08
2022-08-25T02:51:47.634Z,97.00
2022-08-25T02:54:16.606Z,96.79
2022-08-25T02:56:44.846Z,96.61
2022-08-25T02:59:13.092Z,96.69
2022-08-25T03:01:41.368Z,97.15
2022-08-25T03:04:09.811Z,97.57
2022-08-25T03:06:39.834Z,97.98
2022-08-25T03:09:08.825Z,98.28
2022-08-25T03:11:38.477Z,98.47
2022-08-25T03:14:09.669Z,98.39
2022-08-25T03:16:38.022Z,97.98
2022-08-25T03:19:06.961Z,98.10
2022-08-25T03:21:35.123Z,98.47
2022-08-25T03:24:03.494Z,98.47
2022-08-25T03:26:50.810Z,98.40
2022-08-25T03:29:19.739Z,98.22
2022-08-25T03:31:48.087Z,98.17
2022-08-25T03:34:18.027Z,98.18
2022-08-25T03:36:48.866Z,97.88
2022-08-25T03:39:18.678Z,97.74
2022-08-25T03:41:49.700Z,97.86
2022-08-25T03:44:20.182Z,97.58
2022-08-25T03:46:51.506Z,97.91
2022-08-25T03:49:23.261Z,97.91
2022-08-25T03:51:53.721Z,97.69
2022-08-25T03:54:25.968Z,97.64
2022-08-25T03:56:54.873Z,97.28
2022-08-25T03:59:23.040Z,97.10
2022-08-25T04:01:55.009Z,97.04
2022-08-25T04:04:24.401Z,97.08
2022-08-25T04:06:53.296Z,97.25
2022-08-25T04:09:22.366Z,97.45
2022-08-25T04:11:53.261Z,97.20
2022-08-25T04:14:23.861Z,96.58
2022-08-25T04:16:53.287Z,95.90
2022-08-25T04:19:22.446Z,95.55
2022-08-25T04:21:52.059Z,95.15
2022-08-25T04:24:25.711Z,95.06
2022-08-25T04:26:53.861Z,95.27
2022-08-25T04:29:24.631Z,95.10
2022-08-25T04:31:55.314Z,94.47
2022-08-25T04:34:29.931Z,94.02
2022-08-25T04:37:03.017Z,93.19
2022-08-25T04:39:32.559Z,92.74
2022-08-25T04:42:01.483Z,91.99
2022-08-25T04:44:32.261Z,91.07
2022-08-25T04:47:02.086Z,91.38
2022-08-25T04:49:30.145Z,90.79
2022-08-25T04:51:58.831Z,89.70
2022-08-25T04:54:28.376Z,89.53
2022-08-25T04:56:58.382Z,89.41
2022-08-25T04:59:30.376Z,89.21
2022-08-25T05:02:03.233Z,88.70
2022-08-25T05:04:33.608Z,87.21
2022-08-25T05:07:02.059Z,86.24
2022-08-25T05:09:32.163Z,85.67
2022-08-25T05:12:02.932Z,85.45
2022-08-25T05:14:32.934Z,83.94
2022-08-25T05:17:02.246Z,82.46
2022-08-25T05:19:31.631Z,80.90
2022-08-25T05:21:59.769Z,80.34
2022-08-25T05:24:28.253Z,80.37
2022-08-25T05:26:57.549Z,79.99
2022-08-25T05:29:26.029Z,80.46
2022-08-25T05:31:54.604Z,81.39
2022-08-25T05:34:22.820Z,81.85
2022-08-25T05:36:51.678Z,81.67
2022-08-25T05:39:20.031Z,82.17
2022-08-25T05:41:48.152Z,82.43
2022-08-25T05:44:20.856Z,82.99
2022-08-25T05:46:49.710Z,82.88
2022-08-25T05:49:17.774Z,83.48
2022-08-25T05:51:46.107Z,84.26
2022-08-25T05:54:14.477Z,84.77
2022-08-25T05:56:42.830Z,84.85
2022-08-25T05:59:11.442Z,84.92
2022-08-25T06:01:58.018Z,84.49
2022-08-25T06:04:26.464Z,84.02
2022-08-25T06:06:55.957Z,82.16
2022-08-25T06:09:24.637Z,81.76
2022-08-25T06:11:55.201Z,80.13
2022-08-25T06:14:25.027Z,77.46
2022-08-25T06:16:53.692Z,76.29
2022-08-25T06:19:23.828Z,75.38
2022-08-25T06:21:56.965Z,74.50
2022-08-25T06:24:28.087Z,72.56
2022-08-25T06:26:57.513Z,71.78
2022-08-25T06:29:26.900Z,71.76
2022-08-25T06:31:55.379Z,69.94
2022-08-25T06:34:24.157Z,68.27
2022-08-25T06:36:53.245Z,68.88
2022-08-25T06:39:24.134Z,67.39
2022-08-25T06:41:54.401Z,65.56
2022-08-25T06:44:24.515Z,64.80
2022-08-25T06:46:52.737Z,63.01
2022-08-25T06:49:21.634Z,62.56
2022-08-25T06:51:50.879Z,62.73
2022-08-25T06:54:19.204Z,63.01
2022-08-25T06:56:49.579Z,61.46
2022-08-25T06:59:19.064Z,61.29
2022-08-25T07:01:49.488Z,61.23
2022-08-25T07:04:19.134Z,60.79
2022-08-25T07:06:48.577Z,60.14
2022-08-25T07:09:17.706Z,59.83
2022-08-25T07:11:46.303Z,58.61
2022-08-25T07:14:17.415Z,58.06
2022-08-25T07:16:49.655Z,57.54
2022-08-25T07:19:22.195Z,56.28
2022-08-25T07:21:53.234Z,55.38
2022-08-25T07:24:23.220Z,55.09
2022-08-25T07:26:54.182Z,54.66
2022-08-25T07:29:32.353Z,54.80
2022-08-25T07:32:03.614Z,55.03
2022-08-25T07:34:52.282Z,55.82
2022-08-25T07:37:47.740Z,56.59
2022-08-25T07:40:22.687Z,57.73
2022-08-25T07:42:55.065Z,58.31
2022-08-25T07:45:30.652Z,60.53
2022-08-25T07:48:07.159Z,59.75
2022-08-25T07:50:39.149Z,60.03
2022-08-25T07:53:07.485Z,60.48
2022-08-25T07:55:36.809Z,60.31
2022-08-25T07:58:07.884Z,59.16
2022-08-25T08:00:39.837Z,58.34
2022-08-25T08:03:19.810Z,58.13
2022-08-25T08:06:00.020Z,57.52
2022-08-25T08:08:28.587Z,57.84
2022-08-25T08:11:05.392Z,57.85
2022-08-25T08:13:38.035Z,56.42
2022-08-25T08:16:15.072Z,56.01
2022-08-25T08:18:44.355Z,51.31
2022-08-25T08:21:19.925Z,51.49
2022-08-25T08:23:49.802Z,50.18
2022-08-25T08:26:19.297Z,47.97
2022-08-25T08:28:52.185Z,45.97
2022-08-25T08:31:22.664Z,44.84
2022-08-25T08:33:51.435Z,43.79
2022-08-25T08:36:19.715Z,40.43
2022-08-25T08:38:50.262Z,41.66
2022-08-25T08:41:54.567Z,40.16
2022-08-25T08:44:37.526Z,38.49
2022-08-25T08:47:11.732Z,38.35
2022-08-25T08:49:49.105Z,38.55
2022-08-25T08:52:23.059Z,38.07
2022-08-25T08:55:01.107Z,38.30
2022-08-25T08:57:32.269Z,37.08
2022-08-25T09:00:02.534Z,36.41
2022-08-25T09:03:00.381Z,35.67
2022-08-25T09:05:31.380Z,33.78
2022-08-25T09:08:07.036Z,32.76
2022-08-25T09:10:49.059Z,33.54
2022-08-25T09:13:34.230Z,33.68
2022-08-25T09:16:38.219Z,34.24
2022-08-25T09:19:29.060Z,34.35
2022-08-25T09:22:35.550Z,33.89
2022-08-25T09:25:07.951Z,34.13
2022-08-25T09:28:01.008Z,34.31
2022-08-25T09:30:41.995Z,33.72
2022-08-25T09:33:16.426Z,31.98
2022-08-25T09:35:53.684Z,32.05
2022-08-25T09:38:23.632Z,32.66
2022-08-25T09:40:57.039Z,32.82
2022-08-25T09:43:37.144Z,33.37
2022-08-25T09:46:13.706Z,33.15
2022-08-25T09:48:56.961Z,32.56
2022-08-25T09:51:42.258Z,32.84
2022-08-25T09:54:14.402Z,32.60
2022-08-25T09:56:54.814Z,31.92
2022-08-25T09:59:34.164Z,32.09
2022-08-25T10:02:06.008Z,30.91
2022-08-25T10:04:38.254Z,30.34
2022-08-25T10:07:29.248Z,30.57
2022-08-25T10:10:02.082Z,31.17
2022-08-25T10:12:35.902Z,30.39
2022-08-25T10:15:30.052Z,30.21
2022-08-25T10:18:26.218Z,29.95
2022-08-25T10:21:04.330Z,29.01
2022-08-25T10:23:41.274Z,28.67
2022-08-25T10:26:18.191Z,26.59
2022-08-25T10:29:12.236Z,26.33
2022-08-25T10:32:07.099Z,26.64
2022-08-25T10:34:46.512Z,26.94
2022-08-25T10:37:48.187Z,26.27
2022-08-25T10:40:44.205Z,24.90
2022-08-25T10:43:36.971Z,24.92
2022-08-25T10:46:21.909Z,24.88
2022-08-25T10:49:15.391Z,23.63
2022-08-25T10:51:52.052Z,24.01
2022-08-25T10:54:25.722Z,24.08
2022-08-25T10:57:01.389Z,23.05
2022-08-25T10:59:48.647Z,22.62
2022-08-25T11:02:55.677Z,23.29
2022-08-25T11:05:41.720Z,22.81
2022-08-25T11:08:33.694Z,24.18
2022-08-25T11:11:21.985Z,23.65
2022-08-25T11:14:11.059Z,23.55
2022-08-25T11:17:10.471Z,23.91
2022-08-25T11:19:44.106Z,23.82
2022-08-25T11:22:20.598Z,23.62
2022-08-25T11:24:57.383Z,23.80
2022-08-25T11:28:02.309Z,23.07
2022-08-25T11:30:30.717Z,22.53
2022-08-25T11:33:00.017Z,22.70
2022-08-25T11:35:51.564Z,22.88
2022-08-25T11:38:19.734Z,22.76
2022-08-25T11:40:54.710Z,22.84
2022-08-25T11:44:15.479Z,23.33
2022-08-25T11:47:24.771Z,23.76
2022-08-25T11:50:00.064Z,22.96
2022-08-25T11:52:54.089Z,23.19
2022-08-25T11:55:30.116Z,23.67
2022-08-25T11:58:37.505Z,23.93
2022-08-25T12:01:10.733Z,23.76
2022-08-25T12:03:42.048Z,23.19
2022-08-25T12:06:32.008Z,23.53
2022-08-25T12:09:00.141Z,24.26
2022-08-25T12:11:51.546Z,24.12
2022-08-25T12:14:20.325Z,24.50
2022-08-25T12:16:51.132Z,24.23
2022-08-25T12:19:29.893Z,24.09
2022-08-25T12:22:22.250Z,23.79
2022-08-25T12:24:56.370Z,23.89
2022-08-25T12:27:46.970Z,24.21
2022-08-25T12:30:36.630Z,23.35
2022-08-25T12:33:14.645Z,23.41
2022-08-25T12:35:59.193Z,23.65
2022-08-25T12:38:35.003Z,23.86
2022-08-25T12:41:11.581Z,24.22
2022-08-25T12:43:45.920Z,24.56
2022-08-25T12:46:20.128Z,24.28
2022-08-25T12:49:00.700Z,24.90
2022-08-25T12:51:48.530Z,24.63
2022-08-25T12:54:33.504Z,24.13
2022-08-25T12:57:07.588Z,24.13
2022-08-25T12:59:39.737Z,24.70
2022-08-25T13:02:34.237Z,25.45
2022-08-25T13:05:14.396Z,24.99
2022-08-25T13:08:15.172Z,24.27
2022-08-25T13:10:56.367Z,24.32
2022-08-25T13:13:51.834Z,24.76
2022-08-25T13:16:29.558Z,24.79
2022-08-25T13:19:01.811Z,24.54
2022-08-25T13:21:37.219Z,25.06
2022-08-25T13:24:27.290Z,24.87
2022-08-25T13:26:59.782Z,25.00
2022-08-25T13:29:37.437Z,24.98
2022-08-25T13:32:14.491Z,24.48
2022-08-25T13:34:44.008Z,23.95
2022-08-25T13:37:29.632Z,24.16
2022-08-25T13:40:27.449Z,24.98
2022-08-25T13:43:01.246Z,25.53
2022-08-25T13:45:41.061Z,24.88
2022-08-25T13:48:23.017Z,24.53
2022-08-25T13:51:31.368Z,24.52
2022-08-25T13:54:10.526Z,24.58
2022-08-25T13:56:42.328Z,24.49
2022-08-25T13:59:33.347Z,24.55
2022-08-25T14:02:01.741Z,24.88
2022-08-25T14:04:32.572Z,25.46
2022-08-25T14:07:13.433Z,25.28
2022-08-25T14:10:01.357Z,24.99
2022-08-25T14:12:56.990Z,24.46
2022-08-25T14:15:32.267Z,24.57
2022-08-25T14:18:08.046Z,24.55
2022-08-25T14:20:38.180Z,24.73
2022-08-25T14:23:19.036Z,25.06
2022-08-25T14:25:49.830Z,25.70
2022-08-25T14:28:22.286Z,25.87
2022-08-25T14:30:54.928Z,25.78
2022-08-25T14:33:30.123Z,26.01
2022-08-25T14:36:00.391Z,26.34
2022-08-25T14:38:29.706Z,26.54
2022-08-25T14:40:59.220Z,25.89
2022-08-25T14:43:31.902Z,25.40
2022-08-25T14:46:10.976Z,26.27
2022-08-25T14:48:47.175Z,25.89
2022-08-25T14:51:17.973Z,25.32
2022-08-25T14:53:46.582Z,25.69
2022-08-25T14:56:14.925Z,25.24
2022-08-25T14:58:48.554Z,25.66
2022-08-25T15:01:29.062Z,26.05
2022-08-25T15:04:08.219Z,26.19
2022-08-25T15:06:37.244Z,25.75
2022-08-25T15:09:24.947Z,26.42
2022-08-25T15:12:01.542Z,26.96
2022-08-25T15:14:33.636Z,27.24
2022-08-25T15:17:03.240Z,27.45
2022-08-25T15:19:37.626Z,27.44
2022-08-25T15:22:05.802Z,27.71
2022-08-25T15:24:39.034Z,28.50
2022-08-25T15:27:10.155Z,28.51
2022-08-25T15:29:39.046Z,29.28
2022-08-25T15:32:09.056Z,29.71
2022-08-25T15:34:38.764Z,29.83
2022-08-25T15:37:11.419Z,29.93
2022-08-25T15:39:41.726Z,30.73
2022-08-25T15:42:14.150Z,31.10
2022-08-25T15:44:42.750Z,31.20
2022-08-25T15:47:24.221Z,31.64
2022-08-25T15:50:02.750Z,31.81
2022-08-25T15:52:44.404Z,31.46
2022-08-25T15:55:23.833Z,31.77
2022-08-25T15:57:53.860Z,31.63
2022-08-25T16:00:23.018Z,31.75
2022-08-25T16:02:56.366Z,32.15
2022-08-25T16:05:26.130Z,32.60
2022-08-25T16:07:55.695Z,32.57
2022-08-25T16:10:24.233Z,33.22
2022-08-25T16:12:53.654Z,33.43
2022-08-25T16:15:23.788Z,33.57
2022-08-25T16:18:00.973Z,33.73
2022-08-25T16:20:47.861Z,33.92
2022-08-25T16:23:18.457Z,33.88
2022-08-25T16:25:57.145Z,34.15
2022-08-25T16:28:27.351Z,34.48
2022-08-25T16:30:58.577Z,34.65
2022-08-25T16:33:27.047Z,34.85
2022-08-25T16:36:12.418Z,35.19
2022-08-25T16:38:42.811Z,36.03
2022-08-25T16:41:23.768Z,36.38
2022-08-25T16:43:52.536Z,36.80
2022-08-25T16:46:23.791Z,38.40
2022-08-25T16:48:53.147Z,40.39
2022-08-25T16:51:25.614Z,40.57
2022-08-25T16:54:22.380Z,41.66
2022-08-25T16:56:54.656Z,41.17
2022-08-25T16:59:30.585Z,43.25
2022-08-25T17:02:02.195Z,44.64
2022-08-25T17:04:32.519Z,44.91
2022-08-25T17:07:02.248Z,45.94
2022-08-25T17:09:33.303Z,46.57
2022-08-25T17:12:01.499Z,47.20
2022-08-25T17:14:32.858Z,47.97
2022-08-25T17:17:02.867Z,48.05
2022-08-25T17:19:38.473Z,48.66
2022-08-25T17:22:08.285Z,49.85
2022-08-25T17:24:40.477Z,49.79
2022-08-25T17:27:10.393Z,49.22
2022-08-25T17:29:40.627Z,49.04
2022-08-25T17:32:10.829Z,50.50
2022-08-25T17:34:40.024Z,51.04
2022-08-25T17:37:08.274Z,50.70
2022-08-25T17:39:37.502Z,51.67
2022-08-25T17:42:07.191Z,52.69
2022-08-25T17:44:35.815Z,53.10
2022-08-25T17:47:06.655Z,53.58
2022-08-25T17:49:36.401Z,53.70
2022-08-25T17:52:05.357Z,54.76
2022-08-25T17:54:39.714Z,54.34
2022-08-25T17:57:12.695Z,52.98
2022-08-25T17:59:41.229Z,53.30
2022-08-25T18:02:09.834Z,52.70
2022-08-25T18:04:41.691Z,52.07
2022-08-25T18:07:10.069Z,52.02
2022-08-25T18:09:38.313Z,51.76
2022-08-25T18:12:07.320Z,51.57
2022-08-25T18:14:35.579Z,51.15
2022-08-25T18:17:04.198Z,50.85
2022-08-25T18:19:33.309Z,50.28
2022-08-25T18:22:04.494Z,49.88
2022-08-25T18:24:35.732Z,49.60
2022-08-25T18:27:04.009Z,49.38
2022-08-25T18:29:32.250Z,49.57
2022-08-25T18:32:00.914Z,49.62
2022-08-25T18:34:30.353Z,49.67
2022-08-25T18:37:18.638Z,49.64
2022-08-25T18:40:06.656Z,49.59
2022-08-25T18:42:36.553Z,49.49
2022-08-25T18:45:06.616Z,49.49
2022-08-25T18:47:34.731Z,49.23
2022-08-25T18:50:05.563Z,49.23
2022-08-25T18:52:34.515Z,48.91
2022-08-25T18:55:04.138Z,48.74
2022-08-25T18:57:33.313Z,48.77
2022-08-25T19:00:02.477Z,48.87
2022-08-25T19:02:31.989Z,48.88
2022-08-25T19:05:04.771Z,49.00
2022-08-25T19:07:36.022Z,49.15
2022-08-25T19:10:09.546Z,49.44
2022-08-25T19:12:39.218Z,49.68
2022-08-25T19:15:09.670Z,49.97
2022-08-25T19:17:38.471Z,50.18
2022-08-25T19:20:11.199Z,51.03
2022-08-25T19:22:41.961Z,52.30
2022-08-25T19:25:12.640Z,52.47
2022-08-25T19:27:41.682Z,52.66
2022-08-25T19:30:13.124Z,53.22
2022-08-25T19:32:45.104Z,53.93
2022-08-25T19:35:37.830Z,54.07
2022-08-25T19:38:33.263Z,54.87
2022-08-25T19:40:56.985Z,55.08
2022-08-25T19:43:25.618Z,55.44
2022-08-25T19:45:53.776Z,56.12
2022-08-25T19:48:22.659Z,56.67
2022-08-25T19:50:55.978Z,57.07
2022-08-25T19:53:25.230Z,57.48
2022-08-25T19:55:54.483Z,57.76
2022-08-25T19:58:22.835Z,57.72
2022-08-25T20:00:51.357Z,57.62
2022-08-25T20:03:21.708Z,57.26
2022-08-25T20:05:50.008Z,56.91
2022-08-25T20:08:18.268Z,57.47
2022-08-25T20:10:58.403Z,57.47
2022-08-25T20:13:26.935Z,57.15
2022-08-25T20:15:57.658Z,57.27
2022-08-25T20:18:27.211Z,56.94
2022-08-25T20:20:55.387Z,57.65
2022-08-25T20:23:43.950Z,57.98
2022-08-25T20:26:12.374Z,57.87
2022-08-25T20:28:42.157Z,58.14
2022-08-25T20:31:10.864Z,58.10
2022-08-25T20:33:40.126Z,58.42
2022-08-25T20:36:08.542Z,59.22
2022-08-25T20:38:37.013Z,59.28
2022-08-25T20:41:10.033Z,59.33
2022-08-25T20:43:40.880Z,59.08
2022-08-25T20:46:09.676Z,59.00
2022-08-25T20:48:38.874Z,59.64
2022-08-25T20:51:08.830Z,59.85
2022-08-25T20:53:39.034Z,59.82
2022-08-25T20:56:15.175Z,59.94
2022-08-25T20:58:44.662Z,59.86
2022-08-25T21:01:23.050Z,59.80
2022-08-25T21:03:51.634Z,59.77
2022-08-25T21:06:19.830Z,60.53
2022-08-25T21:08:49.178Z,61.06
2022-08-25T21:11:18.207Z,61.35
2022-08-25T21:13:46.931Z,60.76
2022-08-25T21:16:15.312Z,61.20
2022-08-25T21:18:47.979Z,61.19
2022-08-25T21:21:17.010Z,61.76
2022-08-25T21:23:48.742Z,62.24
2022-08-25T21:26:25.467Z,62.09
2022-08-25T21:28:56.685Z,63.24
2022-08-25T21:31:26.315Z,64.25
2022-08-25T21:33:56.579Z,64.73
2022-08-25T21:36:26.770Z,65.28
2022-08-25T21:38:57.726Z,65.46
2022-08-25T21:41:29.558Z,65.41
2022-08-25T21:43:58.909Z,65.56
2022-08-25T21:46:31.253Z,65.92
2022-08-25T21:49:00.708Z,65.94
2022-08-25T21:51:39.449Z,65.93
2022-08-25T21:54:15.561Z,65.69
2022-08-25T21:56:55.942Z,65.56
2022-08-25T21:59:27.805Z,65.41
2022-08-25T22:01:58.202Z,65.42
2022-08-25T22:04:28.257Z,65.53
2022-08-25T22:06:58.057Z,65.50
2022-08-25T22:09:28.666Z,65.47
2022-08-25T22:11:57.358Z,65.42
2022-08-25T22:14:28.450Z,65.14
2022-08-25T22:16:57.268Z,65.12
2022-08-25T22:19:26.303Z,64.95
2022-08-25T22:21:56.549Z,64.78
2022-08-25T22:24:28.302Z,64.95
2022-08-25T22:26:57.261Z,65.01
2022-08-25T22:29:27.069Z,64.99
2022-08-25T22:31:59.343Z,64.84
2022-08-25T22:34:35.527Z,65.00
2022-08-25T22:37:08.931Z,64.99
2022-08-25T22:39:37.483Z,64.95
2022-08-25T22:42:08.442Z,64.97
2022-08-25T22:44:39.229Z,64.99
2022-08-25T22:47:12.652Z,64.75
2022-08-25T22:49:40.905Z,65.58
2022-08-25T22:52:11.501Z,65.72
2022-08-25T22:54:42.041Z,65.43
2022-08-25T22:57:11.943Z,65.47
2022-08-25T22:59:41.482Z,65.45
2022-08-25T23:02:10.160Z,65.84
2022-08-25T23:04:41.123Z,65.89
2022-08-25T23:07:11.742Z,65.74
2022-08-25T23:09:40.126Z,66.08
2022-08-25T23:12:08.796Z,66.41
2022-08-25T23:14:38.795Z,66.57
2022-08-25T23:17:10.603Z,66.99
2022-08-25T23:19:38.831Z,66.91
2022-08-25T23:22:10.635Z,67.25
2022-08-25T23:24:52.350Z,67.28
2022-08-25T23:27:21.799Z,67.34
2022-08-25T23:29:50.421Z,67.56
2022-08-25T23:32:19.039Z,67.51
2022-08-25T23:34:47.548Z,67.35
2022-08-25T23:37:18.678Z,66.95
2022-08-25T23:39:49.877Z,66.98
2022-08-25T23:42:20.497Z,67.13
2022-08-25T23:44:49.740Z,67.20
2022-08-25T23:47:18.946Z,67.07
2022-08-25T23:49:48.507Z,67.06
2022-08-25T23:52:17.784Z,67.42
2022-08-25T23:54:48.536Z,67.11
2022-08-25T23:57:17.063Z,66.74
2022-08-25T23:59:47.086Z,66.55
